createdAt,value
2023-02-01T00:01:30.991Z,62.21
2023-02-01T00:03:02.887Z,62.23
2023-02-01T00:04:34.787Z,62.22
2023-02-01T00:06:06.823Z,62.30
2023-02-01T00:07:38.761Z,62.58
2023-02-01T00:10:50.610Z,62.48
2023-02-01T00:12:22.494Z,62.38
2023-02-01T00:13:56.844Z,62.42
2023-02-01T00:15:28.673Z,62.84
2023-02-01T00:17:00.596Z,62.75
2023-02-01T00:18:32.713Z,62.72
2023-02-01T00:20:04.774Z,62.79
2023-02-01T00:21:36.614Z,63.26
2023-02-01T00:23:09.901Z,63.03
2023-02-01T00:24:41.933Z,62.90
2023-02-01T00:26:17.942Z,62.66
2023-02-01T00:27:50.568Z,62.71
2023-02-01T00:29:22.424Z,62.51
2023-02-01T00:30:58.149Z,62.67
2023-02-01T00:32:29.987Z,62.60
2023-02-01T00:34:01.816Z,62.51
2023-02-01T00:35:35.107Z,62.64
2023-02-01T00:37:09.623Z,62.47
2023-02-01T00:38:41.694Z,62.53
2023-02-01T00:40:13.728Z,62.20
2023-02-01T00:41:45.545Z,62.11
2023-02-01T00:43:17.422Z,62.28
2023-02-01T00:44:49.423Z,62.11
2023-02-01T00:46:21.573Z,62.20
2023-02-01T00:47:53.397Z,61.87
2023-02-01T00:49:25.518Z,62.10
2023-02-01T00:51:00.673Z,61.96
2023-02-01T00:52:32.606Z,61.99
2023-02-01T00:54:04.895Z,62.05
2023-02-01T00:55:36.769Z,62.03
2023-02-01T00:57:08.562Z,61.96
2023-02-01T00:58:40.491Z,62.22
2023-02-01T01:00:12.540Z,62.49
2023-02-01T01:01:44.834Z,62.86
2023-02-01T01:03:19.828Z,62.65
2023-02-01T01:04:51.953Z,62.71
2023-02-01T01:06:25.329Z,62.83
2023-02-01T01:07:57.193Z,62.69
2023-02-01T01:09:29.125Z,62.63
2023-02-01T01:11:05.127Z,62.62
2023-02-01T01:12:36.970Z,62.51
2023-02-01T01:14:10.625Z,62.87
2023-02-01T01:15:42.527Z,62.68
2023-02-01T01:17:14.433Z,62.54
2023-02-01T01:18:46.331Z,62.28
2023-02-01T01:20:18.571Z,62.25
2023-02-01T01:21:50.499Z,62.02
2023-02-01T01:25:01.666Z,61.80
2023-02-01T01:26:33.550Z,61.43
2023-02-01T01:28:05.415Z,61.57
2023-02-01T01:29:37.513Z,61.68
2023-02-01T01:31:10.771Z,61.67
2023-02-01T01:32:42.718Z,61.28
2023-02-01T01:34:14.555Z,61.47
2023-02-01T01:35:46.603Z,61.35
2023-02-01T01:37:18.637Z,60.92
2023-02-01T01:38:50.633Z,60.96
2023-02-01T01:40:22.759Z,60.96
2023-02-01T01:41:54.892Z,60.38
2023-02-01T01:43:26.778Z,60.30
2023-02-01T01:44:58.755Z,59.89
2023-02-01T01:46:33.823Z,59.82
2023-02-01T01:48:08.035Z,60.08
2023-02-01T01:49:39.856Z,59.98
2023-02-01T01:51:12.265Z,60.15
2023-02-01T01:54:21.506Z,60.22
2023-02-01T01:55:53.412Z,60.50
2023-02-01T01:57:28.987Z,60.25
2023-02-01T01:59:00.890Z,59.99
2023-02-01T02:00:33.207Z,60.13
2023-02-01T02:02:05.156Z,59.99
2023-02-01T02:03:39.498Z,59.60
2023-02-01T02:05:11.351Z,59.40
2023-02-01T02:06:51.428Z,59.33
2023-02-01T02:08:23.257Z,59.20
2023-02-01T02:10:01.043Z,59.35
2023-02-01T02:11:33.292Z,59.88
2023-02-01T02:13:05.175Z,59.66
2023-02-01T02:14:36.944Z,59.23
2023-02-01T02:16:11.644Z,59.10
2023-02-01T02:17:51.109Z,59.15
2023-02-01T02:19:41.768Z,59.29
2023-02-01T02:21:24.993Z,59.31
2023-02-01T02:22:59.737Z,59.08
2023-02-01T02:24:46.615Z,58.94
2023-02-01T02:26:21.413Z,59.19
2023-02-01T02:28:11.779Z,58.85
2023-02-01T02:29:51.475Z,58.72
2023-02-01T02:31:42.523Z,58.54
2023-02-01T02:33:17.483Z,58.46
2023-02-01T02:34:57.162Z,58.66
2023-02-01T02:36:35.546Z,58.78
2023-02-01T02:38:23.945Z,58.33
2023-02-01T02:40:01.497Z,58.58
2023-02-01T02:41:52.920Z,58.68
2023-02-01T02:43:45.115Z,58.34
2023-02-01T02:45:58.629Z,58.36
2023-02-01T02:47:50.702Z,58.39
2023-02-01T02:49:37.829Z,58.26
2023-02-01T02:51:48.312Z,58.56
2023-02-01T02:53:42.745Z,58.39
2023-02-01T02:55:14.602Z,58.20
2023-02-01T02:57:05.167Z,58.12
2023-02-01T02:58:55.783Z,58.12
2023-02-01T03:00:49.552Z,57.91
2023-02-01T03:02:39.868Z,58.31
2023-02-01T03:04:15.812Z,57.96
2023-02-01T03:05:51.828Z,58.24
2023-02-01T03:07:42.116Z,58.36
2023-02-01T03:09:15.375Z,58.34
2023-02-01T03:11:06.729Z,58.64
2023-02-01T03:12:56.802Z,58.49
2023-02-01T03:14:28.687Z,58.71
2023-02-01T03:16:00.607Z,58.77
2023-02-01T03:17:34.189Z,58.98
2023-02-01T03:19:10.831Z,59.08
2023-02-01T03:20:44.262Z,59.07
2023-02-01T03:23:48.704Z,59.45
2023-02-01T03:25:23.482Z,59.53
2023-02-01T03:26:56.276Z,59.82
2023-02-01T03:28:28.645Z,60.28
2023-02-01T03:30:02.329Z,60.33
2023-02-01T03:31:34.223Z,60.74
2023-02-01T03:33:12.747Z,61.23
2023-02-01T03:34:44.645Z,61.34
2023-02-01T03:36:17.768Z,61.23
2023-02-01T03:37:49.536Z,61.86
2023-02-01T03:39:33.155Z,62.44
2023-02-01T03:41:14.206Z,62.99
2023-02-01T03:42:47.673Z,63.37
2023-02-01T03:44:23.969Z,63.81
2023-02-01T03:45:57.115Z,64.58
2023-02-01T03:47:29.520Z,65.07
2023-02-01T03:49:02.619Z,65.68
2023-02-01T03:50:35.057Z,66.41
2023-02-01T03:53:40.817Z,66.96
2023-02-01T03:55:13.950Z,66.93
2023-02-01T03:56:46.105Z,67.48
2023-02-01T03:58:19.032Z,67.48
2023-02-01T03:59:50.998Z,67.26
2023-02-01T04:01:22.929Z,67.33
2023-02-01T04:02:54.760Z,66.97
2023-02-01T04:04:26.780Z,67.10
2023-02-01T04:05:58.660Z,67.44
2023-02-01T04:07:30.443Z,67.68
2023-02-01T04:09:02.259Z,67.50
2023-02-01T04:10:36.591Z,67.37
2023-02-01T04:12:08.457Z,67.54
2023-02-01T04:13:40.886Z,68.10
2023-02-01T04:15:12.762Z,67.92
2023-02-01T04:16:44.675Z,67.56
2023-02-01T04:18:16.560Z,68.03
2023-02-01T04:19:49.699Z,68.14
2023-02-01T04:22:58.281Z,68.59
2023-02-01T04:24:30.146Z,68.98
2023-02-01T04:26:02.699Z,69.03
2023-02-01T04:27:34.788Z,69.16
2023-02-01T04:29:10.085Z,68.94
2023-02-01T04:30:42.072Z,68.54
2023-02-01T04:32:13.977Z,68.01
2023-02-01T04:33:45.786Z,67.16
2023-02-01T04:35:19.200Z,66.90
2023-02-01T04:36:51.135Z,66.26
2023-02-01T04:38:22.979Z,65.71
2023-02-01T04:39:55.057Z,65.49
2023-02-01T04:41:26.976Z,65.08
2023-02-01T04:42:58.978Z,64.72
2023-02-01T04:44:30.971Z,64.48
2023-02-01T04:46:03.536Z,63.98
2023-02-01T04:47:35.608Z,64.14
2023-02-01T04:49:07.523Z,63.56
2023-02-01T04:52:16.611Z,63.63
2023-02-01T04:53:48.389Z,63.51
2023-02-01T04:55:20.254Z,63.22
2023-02-01T04:56:52.123Z,63.26
2023-02-01T04:58:23.964Z,63.59
2023-02-01T04:59:55.814Z,64.34
2023-02-01T05:01:27.631Z,65.37
2023-02-01T05:02:59.428Z,65.19
2023-02-01T05:04:31.489Z,65.55
2023-02-01T05:06:05.303Z,65.68
2023-02-01T05:07:37.164Z,65.76
2023-02-01T05:09:08.984Z,66.18
2023-02-01T05:10:40.801Z,67.03
2023-02-01T05:12:31.266Z,67.87
2023-02-01T05:14:05.293Z,68.23
2023-02-01T05:15:37.140Z,68.63
2023-02-01T05:17:09.039Z,68.76
2023-02-01T05:18:40.896Z,69.20
2023-02-01T05:21:45.556Z,69.37
2023-02-01T05:23:17.360Z,69.53
2023-02-01T05:24:49.199Z,69.11
2023-02-01T05:26:21.094Z,69.20
2023-02-01T05:27:52.951Z,69.02
2023-02-01T05:29:24.815Z,69.04
2023-02-01T05:30:56.717Z,69.00
2023-02-01T05:32:28.815Z,68.46
2023-02-01T05:34:00.743Z,68.32
2023-02-01T05:35:32.777Z,68.60
2023-02-01T05:37:04.664Z,68.72
2023-02-01T05:38:36.517Z,68.76
2023-02-01T05:40:08.515Z,68.98
2023-02-01T05:41:40.364Z,69.16
2023-02-01T05:43:12.215Z,69.24
2023-02-01T05:44:44.148Z,69.91
2023-02-01T05:46:16.053Z,69.76
2023-02-01T05:47:47.867Z,69.68
2023-02-01T05:49:19.675Z,69.84
2023-02-01T05:50:51.771Z,69.91
2023-02-01T05:52:23.671Z,70.02
2023-02-01T05:53:55.570Z,70.28
2023-02-01T05:55:27.389Z,70.48
2023-02-01T05:56:59.240Z,70.66
2023-02-01T05:58:31.414Z,71.70
2023-02-01T06:00:04.065Z,71.89
2023-02-01T06:01:35.885Z,72.01
2023-02-01T06:03:07.897Z,72.13
2023-02-01T06:04:40.480Z,72.21
2023-02-01T06:06:12.370Z,72.18
2023-02-01T06:07:44.230Z,71.97
2023-02-01T06:09:16.082Z,72.35
2023-02-01T06:10:47.895Z,72.34
2023-02-01T06:12:19.761Z,72.61
2023-02-01T06:13:51.548Z,72.70
2023-02-01T06:15:23.443Z,72.71
2023-02-01T06:16:56.211Z,72.72
2023-02-01T06:18:28.144Z,72.78
2023-02-01T06:20:00.089Z,73.30
2023-02-01T06:21:31.981Z,73.72
2023-02-01T06:23:03.856Z,74.24
2023-02-01T06:24:35.880Z,74.53
2023-02-01T06:26:09.181Z,74.86
2023-02-01T06:27:41.129Z,75.21
2023-02-01T06:29:13.090Z,75.24
2023-02-01T06:30:47.371Z,75.01
2023-02-01T06:32:19.467Z,74.54
2023-02-01T06:33:51.407Z,74.09
2023-02-01T06:35:23.381Z,72.94
2023-02-01T06:36:56.322Z,72.56
2023-02-01T06:38:28.163Z,72.12
2023-02-01T06:40:00.106Z,71.42
2023-02-01T06:41:31.992Z,71.21
2023-02-01T06:43:03.974Z,70.44
2023-02-01T06:44:36.039Z,70.04
2023-02-01T06:46:08.939Z,69.78
2023-02-01T06:47:40.907Z,69.43
2023-02-01T06:50:51.928Z,68.21
2023-02-01T06:52:23.800Z,66.87
2023-02-01T06:53:55.681Z,66.41
2023-02-01T06:55:29.963Z,66.09
2023-02-01T06:57:01.765Z,66.00
2023-02-01T06:58:34.214Z,66.14
2023-02-01T07:00:06.572Z,65.71
2023-02-01T07:01:38.794Z,64.39
2023-02-01T07:03:10.815Z,64.46
2023-02-01T07:04:42.748Z,64.48
2023-02-01T07:06:14.712Z,63.98
2023-02-01T07:07:46.667Z,63.50
2023-02-01T07:09:18.588Z,63.57
2023-02-01T07:10:50.488Z,63.31
2023-02-01T07:12:22.331Z,63.43
2023-02-01T07:13:54.293Z,62.95
2023-02-01T07:15:26.149Z,62.44
2023-02-01T07:16:58.034Z,61.66
2023-02-01T07:20:03.061Z,61.64
2023-02-01T07:21:35.086Z,61.52
2023-02-01T07:23:06.986Z,61.06
2023-02-01T07:24:38.851Z,60.71
2023-02-01T07:26:12.279Z,61.10
2023-02-01T07:27:44.114Z,61.11
2023-02-01T07:29:16.080Z,60.80
2023-02-01T07:30:52.159Z,60.33
2023-02-01T07:32:24.133Z,59.80
2023-02-01T07:33:57.611Z,59.49
2023-02-01T07:35:29.762Z,59.41
2023-02-01T07:37:01.566Z,59.96
2023-02-01T07:38:33.701Z,59.65
2023-02-01T07:40:05.837Z,59.67
2023-02-01T07:41:37.874Z,59.98
2023-02-01T07:43:09.915Z,60.23
2023-02-01T07:44:42.005Z,59.93
2023-02-01T07:46:14.008Z,59.89
2023-02-01T07:47:45.953Z,59.69
2023-02-01T07:49:18.877Z,59.36
2023-02-01T07:50:58.127Z,58.59
2023-02-01T07:52:30.441Z,58.55
2023-02-01T07:54:02.332Z,58.39
2023-02-01T07:55:36.090Z,56.83
2023-02-01T07:57:10.097Z,56.71
2023-02-01T07:58:44.973Z,57.30
2023-02-01T08:00:35.373Z,57.36
2023-02-01T08:02:07.292Z,57.17
2023-02-01T08:03:39.246Z,55.25
2023-02-01T08:05:10.997Z,55.65
2023-02-01T08:06:45.973Z,56.10
2023-02-01T08:08:17.819Z,55.80
2023-02-01T08:09:49.703Z,55.52
2023-02-01T08:11:24.808Z,55.32
2023-02-01T08:12:59.443Z,55.70
2023-02-01T08:14:31.302Z,55.12
2023-02-01T08:16:04.183Z,54.99
2023-02-01T08:19:08.868Z,54.61
2023-02-01T08:20:42.801Z,54.06
2023-02-01T08:22:14.608Z,54.24
2023-02-01T08:23:46.475Z,54.42
2023-02-01T08:25:18.493Z,54.13
2023-02-01T08:26:50.406Z,53.81
2023-02-01T08:28:22.379Z,53.36
2023-02-01T08:29:55.345Z,53.84
2023-02-01T08:31:28.134Z,53.93
2023-02-01T08:33:00.168Z,54.17
2023-02-01T08:34:33.587Z,54.11
2023-02-01T08:36:06.888Z,54.36
2023-02-01T08:37:38.857Z,54.28
2023-02-01T08:39:11.595Z,54.28
2023-02-01T08:40:43.505Z,54.37
2023-02-01T08:42:34.034Z,54.25
2023-02-01T08:44:05.977Z,54.42
2023-02-01T08:45:37.816Z,54.67
2023-02-01T08:48:43.457Z,53.33
2023-02-01T08:50:15.710Z,53.36
2023-02-01T08:51:47.511Z,53.27
2023-02-01T08:53:19.757Z,53.36
2023-02-01T08:54:51.599Z,53.30
2023-02-01T08:56:23.702Z,53.19
2023-02-01T08:57:55.606Z,53.45
2023-02-01T08:59:28.651Z,53.01
2023-02-01T09:01:06.229Z,52.11
2023-02-01T09:02:38.090Z,51.68
2023-02-01T09:04:09.929Z,51.48
2023-02-01T09:05:49.496Z,51.78
2023-02-01T09:07:22.137Z,52.40
2023-02-01T09:08:54.317Z,52.45
2023-02-01T09:10:34.594Z,51.80
2023-02-01T09:12:06.905Z,51.06
2023-02-01T09:13:38.720Z,51.46
2023-02-01T09:15:10.731Z,51.15
2023-02-01T09:16:42.630Z,50.19
2023-02-01T09:18:14.642Z,49.64
2023-02-01T09:19:46.726Z,49.84
2023-02-01T09:22:59.076Z,50.21
2023-02-01T09:24:30.932Z,49.70
2023-02-01T09:26:03.224Z,49.22
2023-02-01T09:27:35.568Z,49.35
2023-02-01T09:29:13.512Z,49.70
2023-02-01T09:30:45.566Z,49.68
2023-02-01T09:32:18.243Z,49.80
2023-02-01T09:33:50.214Z,49.34
2023-02-01T09:35:22.437Z,49.39
2023-02-01T09:36:54.828Z,48.77
2023-02-01T09:38:29.675Z,49.29
2023-02-01T09:40:01.517Z,49.54
2023-02-01T09:41:33.368Z,49.62
2023-02-01T09:43:08.392Z,49.11
2023-02-01T09:44:55.210Z,48.61
2023-02-01T09:46:31.217Z,48.82
2023-02-01T09:48:13.844Z,48.80
2023-02-01T09:49:57.309Z,48.93
2023-02-01T09:51:30.219Z,48.41
2023-02-01T09:53:06.779Z,47.80
2023-02-01T09:55:02.030Z,47.50
2023-02-01T09:56:57.192Z,47.51
2023-02-01T09:58:31.518Z,46.91
2023-02-01T10:00:07.405Z,47.51
2023-02-01T10:01:39.547Z,47.12
2023-02-01T10:03:14.605Z,47.11
2023-02-01T10:04:46.578Z,47.13
2023-02-01T10:06:27.873Z,47.55
2023-02-01T10:08:10.359Z,47.82
2023-02-01T10:10:00.785Z,48.13
2023-02-01T10:11:51.275Z,48.00
2023-02-01T10:13:35.362Z,48.40
2023-02-01T10:15:13.171Z,48.43
2023-02-01T10:16:48.208Z,48.48
2023-02-01T10:18:26.215Z,48.54
2023-02-01T10:20:00.906Z,48.25
2023-02-01T10:21:45.185Z,48.21
2023-02-01T10:23:34.645Z,48.10
2023-02-01T10:25:06.935Z,47.70
2023-02-01T10:26:39.177Z,47.99
2023-02-01T10:28:14.133Z,47.93
2023-02-01T10:29:47.229Z,47.96
2023-02-01T10:31:19.897Z,47.68
2023-02-01T10:33:12.172Z,47.83
2023-02-01T10:34:44.849Z,48.94
2023-02-01T10:36:25.571Z,48.05
2023-02-01T10:37:58.387Z,47.90
2023-02-01T10:39:30.308Z,47.92
2023-02-01T10:41:06.228Z,48.26
2023-02-01T10:42:38.041Z,48.18
2023-02-01T10:44:17.162Z,48.52
2023-02-01T10:45:48.998Z,48.29
2023-02-01T10:47:21.059Z,47.58
2023-02-01T10:48:54.269Z,46.91
2023-02-01T10:50:40.547Z,46.71
2023-02-01T10:52:20.080Z,46.87
2023-02-01T10:53:54.476Z,46.21
2023-02-01T10:55:40.081Z,46.48
2023-02-01T10:57:33.315Z,47.40
2023-02-01T10:59:06.048Z,46.44
2023-02-01T11:00:57.917Z,46.04
2023-02-01T11:02:34.085Z,45.80
2023-02-01T11:04:07.217Z,45.61
2023-02-01T11:05:45.669Z,46.46
2023-02-01T11:07:26.726Z,46.90
2023-02-01T11:08:59.650Z,46.42
2023-02-01T11:10:37.739Z,46.08
2023-02-01T11:12:30.165Z,46.13
2023-02-01T11:14:05.679Z,46.56
2023-02-01T11:15:37.597Z,46.37
2023-02-01T11:17:15.392Z,46.33
2023-02-01T11:18:48.130Z,46.25
2023-02-01T11:20:21.393Z,45.58
2023-02-01T11:21:54.174Z,45.66
2023-02-01T11:23:26.740Z,45.63
2023-02-01T11:24:58.573Z,45.70
2023-02-01T11:26:30.501Z,45.33
2023-02-01T11:28:02.375Z,45.81
2023-02-01T11:29:36.936Z,45.99
2023-02-01T11:31:10.914Z,45.95
2023-02-01T11:32:43.203Z,46.06
2023-02-01T11:34:21.372Z,46.21
2023-02-01T11:35:53.291Z,45.83
2023-02-01T11:37:25.259Z,46.43
2023-02-01T11:39:11.150Z,45.55
2023-02-01T11:40:43.109Z,45.83
2023-02-01T11:42:16.033Z,46.23
2023-02-01T11:43:59.174Z,44.84
2023-02-01T11:45:32.001Z,44.62
2023-02-01T11:47:22.713Z,44.70
2023-02-01T11:50:44.189Z,43.53
2023-02-01T11:52:22.107Z,43.33
2023-02-01T11:54:03.251Z,43.17
2023-02-01T11:55:44.466Z,42.66
2023-02-01T11:57:35.354Z,43.00
2023-02-01T11:59:13.391Z,43.30
2023-02-01T12:00:50.087Z,43.67
2023-02-01T12:02:27.902Z,43.49
2023-02-01T12:04:15.716Z,42.62
2023-02-01T12:05:47.731Z,42.45
2023-02-01T12:07:37.528Z,42.63
2023-02-01T12:09:09.571Z,42.46
2023-02-01T12:10:41.635Z,41.55
2023-02-01T12:12:32.211Z,42.18
2023-02-01T12:14:07.994Z,41.54
2023-02-01T12:15:58.764Z,41.47
2023-02-01T12:17:49.492Z,42.06
2023-02-01T12:19:25.751Z,41.54
2023-02-01T12:21:16.046Z,42.63
2023-02-01T12:22:54.741Z,41.79
2023-02-01T12:24:36.024Z,42.43
2023-02-01T12:26:23.036Z,42.65
2023-02-01T12:28:04.616Z,42.11
2023-02-01T12:29:56.963Z,42.29
2023-02-01T12:31:28.870Z,42.15
2023-02-01T12:33:06.644Z,41.66
2023-02-01T12:34:38.719Z,41.96
2023-02-01T12:36:12.482Z,41.44
2023-02-01T12:37:46.808Z,42.17
2023-02-01T12:39:25.632Z,41.26
2023-02-01T12:41:10.053Z,41.25
2023-02-01T12:42:43.622Z,41.40
2023-02-01T12:44:33.708Z,41.05
2023-02-01T12:46:10.308Z,41.74
2023-02-01T12:48:11.714Z,40.36
2023-02-01T12:50:04.001Z,40.59
2023-02-01T12:51:37.083Z,41.00
2023-02-01T12:54:50.793Z,40.13
2023-02-01T12:56:24.314Z,39.75
2023-02-01T12:58:08.731Z,39.90
2023-02-01T13:00:03.161Z,40.21
2023-02-01T13:01:42.749Z,40.73
2023-02-01T13:03:26.913Z,41.01
2023-02-01T13:05:05.173Z,39.59
2023-02-01T13:06:39.229Z,38.80
2023-02-01T13:08:16.128Z,40.83
2023-02-01T13:09:55.351Z,41.00
2023-02-01T13:11:27.197Z,40.56
2023-02-01T13:13:05.817Z,40.72
2023-02-01T13:14:43.867Z,40.23
2023-02-01T13:16:17.390Z,40.01
2023-02-01T13:17:50.827Z,40.15
2023-02-01T13:19:48.162Z,40.60
2023-02-01T13:21:21.934Z,41.18
2023-02-01T13:24:32.909Z,41.08
2023-02-01T13:26:05.041Z,40.52
2023-02-01T13:27:36.969Z,40.75
2023-02-01T13:29:10.323Z,40.35
2023-02-01T13:30:54.153Z,40.39
2023-02-01T13:33:50.754Z,40.04
2023-02-01T13:34:43.886Z,40.45
2023-02-01T13:36:19.283Z,38.90
2023-02-01T13:37:54.198Z,40.07
2023-02-01T13:39:29.154Z,39.72
2023-02-01T13:41:19.529Z,40.06
2023-02-01T13:42:51.441Z,39.78
2023-02-01T13:44:34.196Z,39.71
2023-02-01T13:46:07.314Z,39.59
2023-02-01T13:47:42.546Z,39.68
2023-02-01T13:49:21.884Z,39.73
2023-02-01T13:50:55.251Z,40.81
2023-02-01T13:52:30.190Z,39.99
2023-02-01T13:54:02.129Z,39.93
2023-02-01T13:55:35.361Z,39.75
2023-02-01T13:57:08.215Z,40.16
2023-02-01T13:58:41.302Z,40.72
2023-02-01T14:00:35.123Z,40.09
2023-02-01T14:02:26.254Z,39.99
2023-02-01T14:04:08.221Z,40.29
2023-02-01T14:05:40.104Z,39.35
2023-02-01T14:07:18.570Z,39.39
2023-02-01T14:09:11.431Z,38.92
2023-02-01T14:10:49.076Z,39.77
2023-02-01T14:12:39.633Z,40.07
2023-02-01T14:14:17.353Z,40.36
2023-02-01T14:16:04.951Z,40.39
2023-02-01T14:17:37.152Z,39.78
2023-02-01T14:19:10.481Z,39.96
2023-02-01T14:20:45.092Z,39.88
2023-02-01T14:22:25.487Z,40.01
2023-02-01T14:24:19.862Z,40.31
2023-02-01T14:26:02.036Z,40.80
2023-02-01T14:27:36.190Z,40.65
2023-02-01T14:29:20.708Z,40.81
2023-02-01T14:30:55.586Z,40.42
2023-02-01T14:32:35.112Z,40.58
2023-02-01T14:34:12.737Z,40.18
2023-02-01T14:35:44.709Z,40.86
2023-02-01T14:37:19.238Z,40.89
2023-02-01T14:38:51.621Z,40.07
2023-02-01T14:40:27.948Z,40.32
2023-02-01T14:42:07.016Z,40.58
2023-02-01T14:43:54.371Z,40.59
2023-02-01T14:45:28.252Z,40.82
2023-02-01T14:47:06.122Z,40.64
2023-02-01T14:48:37.954Z,40.88
2023-02-01T14:50:28.860Z,40.96
2023-02-01T14:52:01.283Z,41.16
2023-02-01T14:53:36.057Z,41.26
2023-02-01T14:55:08.425Z,41.35
2023-02-01T14:56:40.338Z,41.91
2023-02-01T14:58:26.960Z,41.79
2023-02-01T15:00:07.666Z,41.95
2023-02-01T15:01:40.758Z,42.55
2023-02-01T15:03:15.442Z,42.47
2023-02-01T15:04:47.331Z,42.30
2023-02-01T15:06:29.673Z,42.59
2023-02-01T15:08:04.784Z,42.64
2023-02-01T15:09:38.372Z,42.78
2023-02-01T15:11:12.611Z,42.77
2023-02-01T15:12:47.948Z,43.04
2023-02-01T15:14:19.831Z,43.15
2023-02-01T15:16:01.744Z,43.06
2023-02-01T15:17:36.551Z,43.07
2023-02-01T15:19:10.519Z,43.28
2023-02-01T15:20:47.035Z,43.39
2023-02-01T15:22:30.604Z,43.36
2023-02-01T15:24:22.360Z,43.08
2023-02-01T15:25:54.408Z,43.34
2023-02-01T15:27:26.899Z,43.37
2023-02-01T15:28:59.336Z,43.04
2023-02-01T15:30:32.655Z,43.28
2023-02-01T15:32:06.198Z,43.00
2023-02-01T15:33:38.283Z,43.20
2023-02-01T15:35:28.528Z,43.17
2023-02-01T15:37:05.565Z,43.02
2023-02-01T15:38:44.314Z,43.45
2023-02-01T15:40:23.309Z,43.69
2023-02-01T15:41:59.225Z,43.63
2023-02-01T15:43:32.185Z,44.12
2023-02-01T15:45:04.313Z,43.94
2023-02-01T15:46:43.917Z,43.92
2023-02-01T15:48:18.300Z,44.00
2023-02-01T15:49:56.912Z,43.61
2023-02-01T15:51:30.876Z,43.83
2023-02-01T15:53:02.680Z,44.10
2023-02-01T15:54:45.623Z,43.87
2023-02-01T15:56:17.675Z,44.20
2023-02-01T15:57:49.659Z,44.30
2023-02-01T15:59:25.691Z,44.34
2023-02-01T16:01:02.931Z,44.45
2023-02-01T16:02:40.254Z,44.76
2023-02-01T16:04:15.125Z,44.79
2023-02-01T16:05:47.536Z,44.99
2023-02-01T16:07:26.406Z,45.07
2023-02-01T16:09:03.073Z,45.26
2023-02-01T16:10:39.732Z,45.55
2023-02-01T16:12:25.746Z,45.66
2023-02-01T16:14:03.230Z,45.61
2023-02-01T16:15:35.209Z,45.56
2023-02-01T16:17:07.102Z,45.43
2023-02-01T16:18:38.956Z,45.96
2023-02-01T16:20:11.092Z,45.79
2023-02-01T16:21:42.988Z,45.74
2023-02-01T16:23:15.725Z,45.73
2023-02-01T16:24:47.630Z,45.78
2023-02-01T16:26:19.889Z,45.65
2023-02-01T16:27:51.837Z,45.81
2023-02-01T16:29:23.742Z,45.60
2023-02-01T16:30:58.663Z,45.74
2023-02-01T16:32:30.701Z,46.36
2023-02-01T16:34:02.547Z,46.75
2023-02-01T16:35:38.701Z,46.71
2023-02-01T16:37:12.675Z,46.88
2023-02-01T16:38:44.670Z,47.08
2023-02-01T16:40:16.793Z,47.31
2023-02-01T16:41:48.731Z,47.33
2023-02-01T16:43:24.354Z,47.63
2023-02-01T16:44:56.299Z,47.66
2023-02-01T16:46:36.607Z,47.63
2023-02-01T16:48:08.518Z,47.74
2023-02-01T16:49:40.450Z,47.66
2023-02-01T16:51:13.221Z,47.88
2023-02-01T16:52:45.043Z,48.11
2023-02-01T16:54:17.216Z,48.20
2023-02-01T16:55:50.731Z,48.21
2023-02-01T16:57:27.244Z,48.35
2023-02-01T16:58:59.220Z,48.50
2023-02-01T17:00:32.443Z,48.74
2023-02-01T17:02:04.473Z,48.85
2023-02-01T17:03:36.442Z,48.85
2023-02-01T17:05:08.543Z,48.83
2023-02-01T17:06:40.584Z,49.04
2023-02-01T17:08:12.481Z,49.08
2023-02-01T17:09:44.250Z,49.10
2023-02-01T17:11:17.178Z,49.06
2023-02-01T17:12:48.996Z,49.23
2023-02-01T17:14:22.755Z,49.31
2023-02-01T17:16:05.046Z,49.47
2023-02-01T17:17:39.361Z,49.27
2023-02-01T17:19:13.809Z,50.19
2023-02-01T17:20:48.043Z,51.74
2023-02-01T17:22:23.560Z,53.42
2023-02-01T17:23:55.935Z,53.17
2023-02-01T17:25:28.418Z,54.05
2023-02-01T17:27:00.618Z,54.72
2023-02-01T17:28:32.428Z,55.25
2023-02-01T17:30:04.574Z,56.09
2023-02-01T17:31:37.988Z,55.93
2023-02-01T17:33:22.232Z,56.24
2023-02-01T17:34:54.565Z,57.27
2023-02-01T17:36:27.276Z,57.04
2023-02-01T17:37:59.203Z,57.66
2023-02-01T17:39:49.274Z,57.64
2023-02-01T17:41:21.246Z,58.42
2023-02-01T17:42:58.151Z,58.46
2023-02-01T18:49:55.403Z,68.35
2023-02-01T18:51:27.283Z,67.23
2023-02-01T18:52:59.966Z,67.66
2023-02-01T18:54:32.096Z,67.54
2023-02-01T18:56:04.039Z,67.60
2023-02-01T18:57:35.989Z,67.83
2023-02-01T18:59:09.515Z,68.07
2023-02-01T19:00:42.101Z,67.85
2023-02-01T19:02:14.035Z,68.30
2023-02-01T19:03:48.514Z,67.81
2023-02-01T19:05:25.653Z,67.18
2023-02-01T19:06:59.768Z,67.77
2023-02-01T19:08:32.394Z,68.48
2023-02-01T19:10:06.591Z,68.17
2023-02-01T19:11:38.524Z,68.23
2023-02-01T19:13:13.577Z,68.48
2023-02-01T19:14:45.462Z,68.92
2023-02-01T19:16:17.389Z,68.87
2023-02-01T19:17:50.068Z,68.74
2023-02-01T19:19:22.069Z,69.09
2023-02-01T19:20:55.371Z,69.12
2023-02-01T19:22:27.682Z,69.38
2023-02-01T19:23:59.666Z,69.47
2023-02-01T19:25:31.670Z,69.64
2023-02-01T19:27:03.559Z,69.74
2023-02-01T19:28:35.401Z,69.58
2023-02-01T19:30:07.773Z,69.74
2023-02-01T19:31:39.772Z,69.85
2023-02-01T19:33:11.667Z,70.11
2023-02-01T19:34:43.571Z,69.77
2023-02-01T19:36:15.457Z,69.21
2023-02-01T19:37:47.934Z,69.32
2023-02-01T19:39:25.320Z,70.15
2023-02-01T19:40:57.303Z,70.03
2023-02-01T19:42:29.362Z,70.25
2023-02-01T19:44:01.373Z,70.25
2023-02-01T19:45:33.219Z,70.46
2023-02-01T19:47:05.279Z,70.77
2023-02-01T19:48:37.179Z,70.58
2023-02-01T19:50:11.712Z,70.96
2023-02-01T19:51:45.130Z,70.91
2023-02-01T19:53:17.197Z,70.95
2023-02-01T19:54:49.062Z,70.87
2023-02-01T19:56:20.904Z,70.75
2023-02-01T19:57:52.979Z,70.88
2023-02-01T19:59:25.184Z,70.88
2023-02-01T20:00:56.504Z,70.67
2023-02-01T20:02:29.538Z,70.70
2023-02-01T20:04:06.635Z,70.45
2023-02-01T20:05:38.537Z,70.35
2023-02-01T20:07:13.486Z,70.49
2023-02-01T20:08:45.497Z,70.41
2023-02-01T20:10:17.667Z,70.33
2023-02-01T20:11:49.834Z,70.84
2023-02-01T20:13:21.785Z,71.03
2023-02-01T20:14:55.903Z,70.89
2023-02-01T20:16:27.862Z,70.63
2023-02-01T20:19:36.023Z,70.25
2023-02-01T20:21:07.979Z,70.89
2023-02-01T20:22:39.928Z,70.74
2023-02-01T20:24:15.937Z,70.56
2023-02-01T20:25:48.738Z,70.43
2023-02-01T20:27:20.588Z,70.49
2023-02-01T20:28:52.473Z,71.25
2023-02-01T20:30:24.605Z,71.54
2023-02-01T20:31:56.523Z,72.06
2023-02-01T20:33:29.268Z,72.33
2023-02-01T20:35:01.098Z,72.22
2023-02-01T20:36:33.653Z,72.52
2023-02-01T20:38:05.448Z,72.54
2023-02-01T20:39:37.316Z,72.20
2023-02-01T20:41:09.414Z,72.83
2023-02-01T20:42:41.968Z,72.77
2023-02-01T20:44:13.839Z,72.73
2023-02-01T20:45:45.648Z,73.05
2023-02-01T20:47:17.469Z,73.21
2023-02-01T20:48:50.309Z,73.33
2023-02-01T20:50:22.103Z,73.18
2023-02-01T20:51:53.994Z,72.86
2023-02-01T20:53:27.084Z,72.70
2023-02-01T20:54:59.140Z,72.36
2023-02-01T20:56:31.027Z,72.35
2023-02-01T20:58:02.808Z,72.34
2023-02-01T20:59:34.689Z,72.40
2023-02-01T21:01:06.707Z,72.84
2023-02-01T21:02:38.652Z,72.67
2023-02-01T21:04:10.487Z,72.87
2023-02-01T21:05:52.158Z,72.81
2023-02-01T21:07:24.240Z,72.89
2023-02-01T21:08:56.082Z,73.42
2023-02-01T21:10:27.847Z,73.50
2023-02-01T21:11:59.730Z,73.18
2023-02-01T21:13:32.870Z,73.32
2023-02-01T21:15:05.745Z,73.62
2023-02-01T21:16:37.728Z,74.16
2023-02-01T21:18:14.277Z,74.24
2023-02-01T21:19:46.218Z,74.09
2023-02-01T21:21:19.265Z,73.92
2023-02-01T21:22:51.202Z,73.75
2023-02-01T21:24:23.212Z,74.27
2023-02-01T21:25:55.158Z,74.37
2023-02-01T21:27:27.028Z,74.85
2023-02-01T21:28:58.853Z,75.19
2023-02-01T21:30:30.728Z,75.51
2023-02-01T21:32:02.752Z,75.28
2023-02-01T21:33:34.889Z,74.88
2023-02-01T21:35:07.605Z,74.83
2023-02-01T21:36:39.510Z,74.50
2023-02-01T21:38:11.508Z,74.39
2023-02-01T21:39:43.391Z,74.19
2023-02-01T21:41:33.545Z,74.05
2023-02-01T21:43:05.481Z,73.66
2023-02-01T21:44:37.401Z,73.56
2023-02-01T21:46:09.393Z,73.37
2023-02-01T21:47:41.267Z,73.67
2023-02-01T21:49:13.228Z,73.90
2023-02-01T21:50:45.140Z,74.45
2023-02-01T21:52:17.657Z,74.46
2023-02-01T21:53:49.564Z,74.64
2023-02-01T21:55:21.505Z,74.09
2023-02-01T21:56:53.541Z,73.98
2023-02-01T21:58:25.347Z,73.49